sensor_id;sensor_type;location;lat;lon;timestamp;pressure;altitude;pressure_sealevel;temperature;humidity
2711;BME280;20721;47.402;8.550;2023-07-28T00:00:35;95566;;;19.35;60.70
2711;BME280;20721;47.402;8.550;2023-07-28T00:02:35;95568;;;19.33;60.68
2711;BME280;20721;47.402;8.550;2023-07-28T00:08:37;95565;;;19.32;60.62
2711;BME280;20721;47.402;8.550;2023-07-28T00:10:39;95561;;;19.25;60.90
2711;BME280;20721;47.402;8.550;2023-07-28T00:12:35;95557;;;19.16;61.17
2711;BME280;20721;47.402;8.550;2023-07-28T00:14:35;95555;;;19.06;61.69
2711;BME280;20721;47.402;8.550;2023-07-28T00:16:37;95548;;;18.99;61.76
2711;BME280;20721;47.402;8.550;2023-07-28T00:18:36;95543;;;18.97;61.62
2711;BME280;20721;47.402;8.550;2023-07-28T00:20:35;95533;;;19.02;61.69
2711;BME280;20721;47.402;8.550;2023-07-28T00:22:36;95536;;;19.11;61.54
2711;BME280;20721;47.402;8.550;2023-07-28T00:24:35;95539;;;19.15;61.50
2711;BME280;20721;47.402;8.550;2023-07-28T00:26:36;95540;;;19.16;61.43
2711;BME280;20721;47.402;8.550;2023-07-28T00:30:36;95537;;;19.17;61.58
2711;BME280;20721;47.402;8.550;2023-07-28T00:32:36;95536;;;19.20;61.46
2711;BME280;20721;47.402;8.550;2023-07-28T00:34:36;95533;;;19.21;61.40
2711;BME280;20721;47.402;8.550;2023-07-28T00:36:36;95533;;;19.20;61.37
2711;BME280;20721;47.402;8.550;2023-07-28T00:38:36;95534;;;19.21;61.39
2711;BME280;20721;47.402;8.550;2023-07-28T00:40:36;95535;;;19.24;61.18
2711;BME280;20721;47.402;8.550;2023-07-28T00:42:37;95531;;;19.24;61.16
2711;BME280;20721;47.402;8.550;2023-07-28T00:44:36;95526;;;19.21;61.14
2711;BME280;20721;47.402;8.550;2023-07-28T00:46:36;95522;;;19.19;61.54
2711;BME280;20721;47.402;8.550;2023-07-28T00:49:36;95532;;;19.21;61.78
2711;BME280;20721;47.402;8.550;2023-07-28T00:51:36;95530;;;19.23;61.89
2711;BME280;20721;47.402;8.550;2023-07-28T00:53:36;95528;;;19.28;61.99
2711;BME280;20721;47.402;8.550;2023-07-28T00:55:36;95525;;;19.32;61.98
2711;BME280;20721;47.402;8.550;2023-07-28T00:57:36;95529;;;19.28;61.69
2711;BME280;20721;47.402;8.550;2023-07-28T01:01:36;95522;;;19.28;61.18
2711;BME280;20721;47.402;8.550;2023-07-28T01:03:36;95526;;;19.31;61.10
2711;BME280;20721;47.402;8.550;2023-07-28T01:05:53;95523;;;19.28;60.52
2711;BME280;20721;47.402;8.550;2023-07-28T01:08:42;95519;;;19.26;60.42
2711;BME280;20721;47.402;8.550;2023-07-28T01:10:36;95521;;;19.18;60.56
2711;BME280;20721;47.402;8.550;2023-07-28T01:12:36;95531;;;19.20;60.84
2711;BME280;20721;47.402;8.550;2023-07-28T01:14:36;95538;;;19.23;60.92
2711;BME280;20721;47.402;8.550;2023-07-28T01:16:36;95537;;;19.27;60.87
2711;BME280;20721;47.402;8.550;2023-07-28T01:18:36;95534;;;19.24;60.79
2711;BME280;20721;47.402;8.550;2023-07-28T01:20:36;95534;;;19.18;61.13
2711;BME280;20721;47.402;8.550;2023-07-28T01:25:47;95537;;;19.23;61.16
2711;BME280;20721;47.402;8.550;2023-07-28T01:27:37;95537;;;19.28;61.19
2711;BME280;20721;47.402;8.550;2023-07-28T01:30:36;95530;;;19.32;61.52
2711;BME280;20721;47.402;8.550;2023-07-28T01:32:36;95530;;;19.38;62.06
2711;BME280;20721;47.402;8.550;2023-07-28T01:34:36;95527;;;19.42;62.29
2711;BME280;20721;47.402;8.550;2023-07-28T01:36:36;95529;;;19.44;62.39
2711;BME280;20721;47.402;8.550;2023-07-28T01:38:36;95525;;;19.37;62.70
2711;BME280;20721;47.402;8.550;2023-07-28T01:40:36;95521;;;19.34;62.94
2711;BME280;20721;47.402;8.550;2023-07-28T01:42:36;95523;;;19.30;63.08
2711;BME280;20721;47.402;8.550;2023-07-28T01:44:36;95515;;;19.26;63.33
2711;BME280;20721;47.402;8.550;2023-07-28T01:46:36;95526;;;19.23;63.59
2711;BME280;20721;47.402;8.550;2023-07-28T01:48:37;95512;;;19.19;63.75
2711;BME280;20721;47.402;8.550;2023-07-28T01:50:36;95528;;;19.16;63.88
2711;BME280;20721;47.402;8.550;2023-07-28T01:52:36;95520;;;19.09;64.15
2711;BME280;20721;47.402;8.550;2023-07-28T01:54:36;95527;;;19.12;64.13
2711;BME280;20721;47.402;8.550;2023-07-28T01:56:36;95530;;;19.19;63.88
2711;BME280;20721;47.402;8.550;2023-07-28T01:58:36;95533;;;19.29;63.52
2711;BME280;20721;47.402;8.550;2023-07-28T02:00:36;95538;;;19.44;63.02
2711;BME280;20721;47.402;8.550;2023-07-28T02:02:36;95542;;;19.52;62.70
2711;BME280;20721;47.402;8.550;2023-07-28T02:04:36;95539;;;19.42;62.61
2711;BME280;20721;47.402;8.550;2023-07-28T02:07:36;95547;;;19.35;62.77
2711;BME280;20721;47.402;8.550;2023-07-28T02:09:36;95553;;;19.23;63.09
2711;BME280;20721;47.402;8.550;2023-07-28T02:11:36;95554;;;19.19;63.06
2711;BME280;20721;47.402;8.550;2023-07-28T02:13:36;95552;;;19.21;63.11
2711;BME280;20721;47.402;8.550;2023-07-28T02:15:38;95555;;;19.14;63.25
2711;BME280;20721;47.402;8.550;2023-07-28T02:17:36;95563;;;19.28;63.28
2711;BME280;20721;47.402;8.550;2023-07-28T02:19:36;95570;;;19.40;62.96
2711;BME280;20721;47.402;8.550;2023-07-28T02:21:36;95580;;;19.43;62.39
2711;BME280;20721;47.402;8.550;2023-07-28T02:23:36;95587;;;19.43;62.45
2711;BME280;20721;47.402;8.550;2023-07-28T02:25:36;95588;;;19.42;62.29
2711;BME280;20721;47.402;8.550;2023-07-28T02:27:36;95589;;;19.19;62.74
2711;BME280;20721;47.402;8.550;2023-07-28T02:29:36;95584;;;18.96;63.50
2711;BME280;20721;47.402;8.550;2023-07-28T02:31:36;95585;;;18.67;64.41
2711;BME280;20721;47.402;8.550;2023-07-28T02:33:36;95584;;;18.54;65.42
2711;BME280;20721;47.402;8.550;2023-07-28T02:35:36;95576;;;18.61;65.39
2711;BME280;20721;47.402;8.550;2023-07-28T02:37:36;95580;;;18.75;64.78
2711;BME280;20721;47.402;8.550;2023-07-28T02:39:36;95582;;;18.71;64.98
2711;BME280;20721;47.402;8.550;2023-07-28T02:41:36;95580;;;18.79;64.79
2711;BME280;20721;47.402;8.550;2023-07-28T02:43:36;95581;;;18.80;64.75
2711;BME280;20721;47.402;8.550;2023-07-28T02:45:36;95584;;;18.80;64.81
2711;BME280;20721;47.402;8.550;2023-07-28T02:47:36;95593;;;18.75;65.02
2711;BME280;20721;47.402;8.550;2023-07-28T02:49:36;95600;;;18.59;65.54
2711;BME280;20721;47.402;8.550;2023-07-28T02:51:36;95603;;;18.57;65.52
2711;BME280;20721;47.402;8.550;2023-07-28T02:53:36;95613;;;18.58;65.54
2711;BME280;20721;47.402;8.550;2023-07-28T02:55:40;95617;;;18.75;65.06
2711;BME280;20721;47.402;8.550;2023-07-28T02:57:36;95619;;;18.92;64.48
2711;BME280;20721;47.402;8.550;2023-07-28T02:59:36;95633;;;19.08;64.00
2711;BME280;20721;47.402;8.550;2023-07-28T03:01:36;95637;;;19.23;63.54
2711;BME280;20721;47.402;8.550;2023-07-28T03:04:36;95633;;;19.23;63.54
2711;BME280;20721;47.402;8.550;2023-07-28T03:06:36;95639;;;19.19;63.73
2711;BME280;20721;47.402;8.550;2023-07-28T03:08:36;95638;;;19.28;63.54
2711;BME280;20721;47.402;8.550;2023-07-28T03:10:36;95639;;;19.33;63.36
2711;BME280;20721;47.402;8.550;2023-07-28T03:12:36;95640;;;19.36;63.28
2711;BME280;20721;47.402;8.550;2023-07-28T03:14:36;95635;;;19.32;62.97
2711;BME280;20721;47.402;8.550;2023-07-28T03:16:37;95636;;;19.31;63.18
2711;BME280;20721;47.402;8.550;2023-07-28T03:18:36;95640;;;19.30;62.83
2711;BME280;20721;47.402;8.550;2023-07-28T03:20:36;95644;;;19.21;63.47
2711;BME280;20721;47.402;8.550;2023-07-28T03:22:36;95645;;;19.23;63.43
2711;BME280;20721;47.402;8.550;2023-07-28T03:24:36;95640;;;19.23;63.53
2711;BME280;20721;47.402;8.550;2023-07-28T03:29:36;95642;;;19.25;63.74
2711;BME280;20721;47.402;8.550;2023-07-28T03:31:36;95638;;;19.21;63.90
2711;BME280;20721;47.402;8.550;2023-07-28T03:33:36;95645;;;19.19;63.04
2711;BME280;20721;47.402;8.550;2023-07-28T03:35:36;95651;;;19.14;62.99
2711;BME280;20721;47.402;8.550;2023-07-28T03:37:36;95650;;;19.09;63.01
2711;BME280;20721;47.402;8.550;2023-07-28T03:39:36;95651;;;19.07;62.96
2711;BME280;20721;47.402;8.550;2023-07-28T03:41:36;95646;;;19.04;62.83
2711;BME280;20721;47.402;8.550;2023-07-28T03:43:36;95649;;;18.86;63.28
2711;BME280;20721;47.402;8.550;2023-07-28T03:45:36;95651;;;18.70;63.82
2711;BME280;20721;47.402;8.550;2023-07-28T03:47:37;95646;;;18.73;63.82
2711;BME280;20721;47.402;8.550;2023-07-28T03:49:36;95649;;;18.84;63.60
2711;BME280;20721;47.402;8.550;2023-07-28T03:51:36;95644;;;18.95;63.30
2711;BME280;20721;47.402;8.550;2023-07-28T03:53:36;95643;;;18.99;62.87
2711;BME280;20721;47.402;8.550;2023-07-28T03:56:37;95643;;;19.01;62.61
2711;BME280;20721;47.402;8.550;2023-07-28T03:58:36;95647;;;19.01;62.53
2711;BME280;20721;47.402;8.550;2023-07-28T04:01:36;95649;;;19.04;62.69
2711;BME280;20721;47.402;8.550;2023-07-28T04:03:38;95648;;;19.05;62.68
2711;BME280;20721;47.402;8.550;2023-07-28T04:05:36;95651;;;19.02;62.63
2711;BME280;20721;47.402;8.550;2023-07-28T04:07:36;95651;;;19.00;62.66
2711;BME280;20721;47.402;8.550;2023-07-28T04:09:36;95654;;;18.99;62.65
2711;BME280;20721;47.402;8.550;2023-07-28T04:11:36;95655;;;18.98;62.86
2711;BME280;20721;47.402;8.550;2023-07-28T04:13:36;95653;;;18.99;62.99
2711;BME280;20721;47.402;8.550;2023-07-28T04:15:36;95655;;;19.02;62.94
2711;BME280;20721;47.402;8.550;2023-07-28T04:17:36;95655;;;19.04;62.90
2711;BME280;20721;47.402;8.550;2023-07-28T04:19:36;95659;;;19.07;62.82
2711;BME280;20721;47.402;8.550;2023-07-28T04:21:39;95659;;;19.09;62.82
2711;BME280;20721;47.402;8.550;2023-07-28T04:24:36;95653;;;19.07;62.83
2711;BME280;20721;47.402;8.550;2023-07-28T04:26:37;95661;;;19.06;62.80
2711;BME280;20721;47.402;8.550;2023-07-28T04:31:36;95669;;;19.07;62.56
2711;BME280;20721;47.402;8.550;2023-07-28T04:33:36;95667;;;19.07;63.12
2711;BME280;20721;47.402;8.550;2023-07-28T04:35:36;95660;;;19.01;63.65
2711;BME280;20721;47.402;8.550;2023-07-28T04:37:36;95660;;;19.04;63.49
2711;BME280;20721;47.402;8.550;2023-07-28T04:39:36;95651;;;19.01;63.48
2711;BME280;20721;47.402;8.550;2023-07-28T04:41:36;95648;;;19.10;63.07
2711;BME280;20721;47.402;8.550;2023-07-28T04:43:36;95650;;;19.00;61.66
2711;BME280;20721;47.402;8.550;2023-07-28T04:45:36;95651;;;19.00;62.12
2711;BME280;20721;47.402;8.550;2023-07-28T04:47:36;95654;;;19.19;61.40
2711;BME280;20721;47.402;8.550;2023-07-28T04:49:36;95647;;;19.26;60.06
2711;BME280;20721;47.402;8.550;2023-07-28T04:51:36;95650;;;19.32;59.13
2711;BME280;20721;47.402;8.550;2023-07-28T04:53:36;95647;;;19.36;58.95
2711;BME280;20721;47.402;8.550;2023-07-28T04:55:36;95654;;;19.47;58.59
2711;BME280;20721;47.402;8.550;2023-07-28T04:57:36;95654;;;19.65;58.18
2711;BME280;20721;47.402;8.550;2023-07-28T04:59:36;95656;;;19.82;57.40
2711;BME280;20721;47.402;8.550;2023-07-28T05:01:37;95657;;;19.91;56.76
2711;BME280;20721;47.402;8.550;2023-07-28T05:03:36;95652;;;19.88;56.05
2711;BME280;20721;47.402;8.550;2023-07-28T05:05:36;95656;;;19.94;56.31
2711;BME280;20721;47.402;8.550;2023-07-28T05:07:36;95657;;;20.01;56.18
2711;BME280;20721;47.402;8.550;2023-07-28T05:09:37;95660;;;20.16;56.97
2711;BME280;20721;47.402;8.550;2023-07-28T05:11:37;95667;;;20.33;57.41
2711;BME280;20721;47.402;8.550;2023-07-28T05:13:36;95670;;;20.38;58.12
2711;BME280;20721;47.402;8.550;2023-07-28T05:15:36;95674;;;20.44;57.78
2711;BME280;20721;47.402;8.550;2023-07-28T05:17:37;95679;;;20.48;57.38
2711;BME280;20721;47.402;8.550;2023-07-28T05:20:36;95671;;;20.48;56.98
2711;BME280;20721;47.402;8.550;2023-07-28T05:22:36;95683;;;20.41;57.99
2711;BME280;20721;47.402;8.550;2023-07-28T05:24:36;95679;;;20.40;56.81
2711;BME280;20721;47.402;8.550;2023-07-28T05:26:36;95680;;;20.49;56.78
2711;BME280;20721;47.402;8.550;2023-07-28T05:28:36;95675;;;20.62;56.45
2711;BME280;20721;47.402;8.550;2023-07-28T05:30:36;95675;;;20.64;55.65
2711;BME280;20721;47.402;8.550;2023-07-28T05:32:36;95675;;;20.72;54.91
2711;BME280;20721;47.402;8.550;2023-07-28T05:34:36;95673;;;20.81;55.24
2711;BME280;20721;47.402;8.550;2023-07-28T05:36:36;95676;;;20.93;54.54
2711;BME280;20721;47.402;8.550;2023-07-28T05:38:36;95674;;;21.02;54.28
2711;BME280;20721;47.402;8.550;2023-07-28T05:40:36;95680;;;21.05;54.34
2711;BME280;20721;47.402;8.550;2023-07-28T05:42:36;95681;;;21.01;54.28
2711;BME280;20721;47.402;8.550;2023-07-28T05:44:36;95688;;;21.16;54.18
2711;BME280;20721;47.402;8.550;2023-07-28T05:46:36;95688;;;21.23;53.51
2711;BME280;20721;47.402;8.550;2023-07-28T05:48:36;95689;;;21.25;53.34
2711;BME280;20721;47.402;8.550;2023-07-28T05:50:38;95687;;;21.21;53.46
2711;BME280;20721;47.402;8.550;2023-07-28T05:52:36;95688;;;21.27;53.74
2711;BME280;20721;47.402;8.550;2023-07-28T05:54:36;95689;;;21.19;53.58
2711;BME280;20721;47.402;8.550;2023-07-28T05:56:36;95689;;;21.27;53.73
2711;BME280;20721;47.402;8.550;2023-07-28T05:58:36;95691;;;21.45;53.68
2711;BME280;20721;47.402;8.550;2023-07-28T06:00:38;95685;;;21.63;54.37
2711;BME280;20721;47.402;8.550;2023-07-28T06:02:36;95690;;;21.77;54.37
2711;BME280;20721;47.402;8.550;2023-07-28T06:04:36;95694;;;21.85;54.97
2711;BME280;20721;47.402;8.550;2023-07-28T06:07:36;95699;;;21.86;55.25
2711;BME280;20721;47.402;8.550;2023-07-28T06:09:37;95691;;;21.82;55.15
2711;BME280;20721;47.402;8.550;2023-07-28T06:11:37;95699;;;21.75;55.63
2711;BME280;20721;47.402;8.550;2023-07-28T06:13:36;95701;;;21.70;55.87
2711;BME280;20721;47.402;8.550;2023-07-28T06:17:36;95704;;;21.66;56.38
2711;BME280;20721;47.402;8.550;2023-07-28T06:19:36;95706;;;21.72;56.44
2711;BME280;20721;47.402;8.550;2023-07-28T06:21:37;95696;;;21.77;56.35
2711;BME280;20721;47.402;8.550;2023-07-28T06:23:36;95694;;;21.82;56.12
2711;BME280;20721;47.402;8.550;2023-07-28T06:25:42;95699;;;21.84;56.13
2711;BME280;20721;47.402;8.550;2023-07-28T06:27:38;95698;;;21.89;56.15
2711;BME280;20721;47.402;8.550;2023-07-28T06:29:36;95705;;;21.95;56.13
2711;BME280;20721;47.402;8.550;2023-07-28T06:31:37;95705;;;21.99;56.12
2711;BME280;20721;47.402;8.550;2023-07-28T06:33:36;95710;;;22.05;55.77
2711;BME280;20721;47.402;8.550;2023-07-28T06:35:37;95708;;;22.15;55.95
2711;BME280;20721;47.402;8.550;2023-07-28T06:37:38;95711;;;22.32;55.58
2711;BME280;20721;47.402;8.550;2023-07-28T06:39:36;95713;;;22.46;55.29
2711;BME280;20721;47.402;8.550;2023-07-28T06:41:37;95714;;;22.63;54.07
2711;BME280;20721;47.402;8.550;2023-07-28T06:43:37;95713;;;22.75;51.96
2711;BME280;20721;47.402;8.550;2023-07-28T06:45:36;95715;;;22.99;52.11
2711;BME280;20721;47.402;8.550;2023-07-28T06:47:37;95713;;;23.29;50.80
2711;BME280;20721;47.402;8.550;2023-07-28T06:49:36;95716;;;23.36;50.45
2711;BME280;20721;47.402;8.550;2023-07-28T06:51:37;95715;;;23.69;50.38
2711;BME280;20721;47.402;8.550;2023-07-28T06:53:37;95718;;;24.00;49.86
2711;BME280;20721;47.402;8.550;2023-07-28T06:55:39;95716;;;24.34;47.75
2711;BME280;20721;47.402;8.550;2023-07-28T06:57:39;95717;;;24.63;47.75
2711;BME280;20721;47.402;8.550;2023-07-28T06:59:37;95718;;;24.80;46.91
2711;BME280;20721;47.402;8.550;2023-07-28T07:01:37;95715;;;24.86;45.84
2711;BME280;20721;47.402;8.550;2023-07-28T07:03:37;95720;;;24.96;46.25
2711;BME280;20721;47.402;8.550;2023-07-28T07:05:36;95716;;;24.84;45.62
2711;BME280;20721;47.402;8.550;2023-07-28T07:07:37;95723;;;24.59;45.67
2711;BME280;20721;47.402;8.550;2023-07-28T07:09:37;95727;;;24.49;45.49
2711;BME280;20721;47.402;8.550;2023-07-28T07:11:37;95727;;;24.51;45.34
2711;BME280;20721;47.402;8.550;2023-07-28T07:13:37;95730;;;24.74;45.64
2711;BME280;20721;47.402;8.550;2023-07-28T07:15:37;95732;;;24.83;44.44
2711;BME280;20721;47.402;8.550;2023-07-28T07:17:37;95729;;;25.01;44.81
2711;BME280;20721;47.402;8.550;2023-07-28T07:19:37;95730;;;25.11;44.15
2711;BME280;20721;47.402;8.550;2023-07-28T07:21:37;95724;;;25.26;43.91
2711;BME280;20721;47.402;8.550;2023-07-28T07:23:37;95723;;;25.38;43.44
2711;BME280;20721;47.402;8.550;2023-07-28T07:25:37;95714;;;25.39;43.81
2711;BME280;20721;47.402;8.550;2023-07-28T07:28:37;95727;;;25.47;43.27
2711;BME280;20721;47.402;8.550;2023-07-28T07:30:37;95727;;;25.81;43.17
2711;BME280;20721;47.402;8.550;2023-07-28T07:32:37;95729;;;26.09;41.88
2711;BME280;20721;47.402;8.550;2023-07-28T07:34:38;95728;;;26.18;41.84
2711;BME280;20721;47.402;8.550;2023-07-28T07:36:37;95731;;;26.45;42.08
2711;BME280;20721;47.402;8.550;2023-07-28T07:38:37;95727;;;27.01;41.44
2711;BME280;20721;47.402;8.550;2023-07-28T07:40:37;95727;;;27.60;40.65
2711;BME280;20721;47.402;8.550;2023-07-28T07:42:41;95726;;;27.83;38.85
2711;BME280;20721;47.402;8.550;2023-07-28T07:44:37;95721;;;28.04;39.15
2711;BME280;20721;47.402;8.550;2023-07-28T07:46:37;95726;;;28.18;38.54
2711;BME280;20721;47.402;8.550;2023-07-28T07:48:37;95729;;;28.18;38.44
2711;BME280;20721;47.402;8.550;2023-07-28T07:50:37;95729;;;28.36;38.73
2711;BME280;20721;47.402;8.550;2023-07-28T07:52:41;95733;;;28.58;38.11
2711;BME280;20721;47.402;8.550;2023-07-28T07:54:37;95732;;;28.71;37.67
2711;BME280;20721;47.402;8.550;2023-07-28T07:56:37;95726;;;28.85;37.79
2711;BME280;20721;47.402;8.550;2023-07-28T07:58:37;95726;;;28.79;37.29
2711;BME280;20721;47.402;8.550;2023-07-28T08:00:37;95730;;;28.51;37.95
2711;BME280;20721;47.402;8.550;2023-07-28T08:02:37;95728;;;28.32;38.44
2711;BME280;20721;47.402;8.550;2023-07-28T08:04:37;95736;;;28.21;38.53
2711;BME280;20721;47.402;8.550;2023-07-28T08:06:37;95732;;;28.20;38.41
2711;BME280;20721;47.402;8.550;2023-07-28T08:08:37;95729;;;28.41;38.41
2711;BME280;20721;47.402;8.550;2023-07-28T08:10:38;95729;;;28.79;38.02
2711;BME280;20721;47.402;8.550;2023-07-28T08:12:37;95727;;;28.98;37.37
2711;BME280;20721;47.402;8.550;2023-07-28T08:14:37;95728;;;29.23;37.33
2711;BME280;20721;47.402;8.550;2023-07-28T08:16:37;95729;;;29.53;37.24
2711;BME280;20721;47.402;8.550;2023-07-28T08:18:37;95726;;;29.82;37.09
2711;BME280;20721;47.402;8.550;2023-07-28T08:20:37;95727;;;30.03;36.10
2711;BME280;20721;47.402;8.550;2023-07-28T08:22:37;95727;;;30.17;36.35
2711;BME280;20721;47.402;8.550;2023-07-28T08:24:37;95730;;;30.41;35.82
2711;BME280;20721;47.402;8.550;2023-07-28T08:26:37;95736;;;30.65;35.16
2711;BME280;20721;47.402;8.550;2023-07-28T08:28:37;95731;;;30.85;35.37
2711;BME280;20721;47.402;8.550;2023-07-28T08:30:37;95738;;;31.14;35.22
2711;BME280;20721;47.402;8.550;2023-07-28T08:32:37;95732;;;31.32;34.28
2711;BME280;20721;47.402;8.550;2023-07-28T08:34:37;95733;;;31.36;34.11
2711;BME280;20721;47.402;8.550;2023-07-28T08:36:37;95731;;;31.58;34.89
2711;BME280;20721;47.402;8.550;2023-07-28T08:38:37;95729;;;31.74;33.21
2711;BME280;20721;47.402;8.550;2023-07-28T08:40:37;95722;;;31.88;33.14
2711;BME280;20721;47.402;8.550;2023-07-28T08:42:38;95725;;;32.08;33.13
2711;BME280;20721;47.402;8.550;2023-07-28T08:44:37;95723;;;31.87;33.38
2711;BME280;20721;47.402;8.550;2023-07-28T08:46:37;95736;;;31.42;33.77
2711;BME280;20721;47.402;8.550;2023-07-28T08:48:37;95727;;;31.28;33.24
2711;BME280;20721;47.402;8.550;2023-07-28T08:50:37;95733;;;31.11;34.44
2711;BME280;20721;47.402;8.550;2023-07-28T08:52:37;95730;;;30.94;34.50
2711;BME280;20721;47.402;8.550;2023-07-28T08:54:37;95730;;;30.94;34.20
2711;BME280;20721;47.402;8.550;2023-07-28T08:56:37;95722;;;30.70;34.88
2711;BME280;20721;47.402;8.550;2023-07-28T08:58:37;95733;;;30.78;34.41
2711;BME280;20721;47.402;8.550;2023-07-28T09:00:37;95728;;;30.66;34.93
2711;BME280;20721;47.402;8.550;2023-07-28T09:02:37;95730;;;30.71;35.51
2711;BME280;20721;47.402;8.550;2023-07-28T09:04:37;95729;;;30.56;35.40
2711;BME280;20721;47.402;8.550;2023-07-28T09:07:37;95726;;;30.57;35.36
2711;BME280;20721;47.402;8.550;2023-07-28T09:09:38;95734;;;30.13;35.65
2711;BME280;20721;47.402;8.550;2023-07-28T09:11:45;95728;;;30.07;35.98
2711;BME280;20721;47.402;8.550;2023-07-28T09:13:39;95727;;;30.01;35.68
2711;BME280;20721;47.402;8.550;2023-07-28T09:15:37;95723;;;30.18;35.45
2711;BME280;20721;47.402;8.550;2023-07-28T09:17:41;95728;;;30.03;35.85
2711;BME280;20721;47.402;8.550;2023-07-28T09:19:53;95728;;;30.35;36.21
2711;BME280;20721;47.402;8.550;2023-07-28T09:22:37;95722;;;30.52;34.74
2711;BME280;20721;47.402;8.550;2023-07-28T09:24:37;95730;;;30.81;34.41
2711;BME280;20721;47.402;8.550;2023-07-28T09:28:39;95720;;;31.68;34.32
2711;BME280;20721;47.402;8.550;2023-07-28T09:30:45;95723;;;31.98;33.19
2711;BME280;20721;47.402;8.550;2023-07-28T09:32:38;95723;;;31.69;33.11
2711;BME280;20721;47.402;8.550;2023-07-28T09:34:37;95716;;;31.84;33.34
2711;BME280;20721;47.402;8.550;2023-07-28T09:37:38;95717;;;31.96;32.49
2711;BME280;20721;47.402;8.550;2023-07-28T09:39:37;95715;;;32.34;31.75
2711;BME280;20721;47.402;8.550;2023-07-28T09:41:38;95718;;;32.50;31.83
2711;BME280;20721;47.402;8.550;2023-07-28T09:43:37;95712;;;32.57;31.96
2711;BME280;20721;47.402;8.550;2023-07-28T09:45:39;95720;;;32.37;31.97
2711;BME280;20721;47.402;8.550;2023-07-28T09:47:37;95714;;;32.11;31.48
2711;BME280;20721;47.402;8.550;2023-07-28T09:49:39;95719;;;31.75;32.33
2711;BME280;20721;47.402;8.550;2023-07-28T09:51:38;95707;;;32.01;32.13
2711;BME280;20721;47.402;8.550;2023-07-28T09:53:40;95714;;;32.24;31.73
2711;BME280;20721;47.402;8.550;2023-07-28T09:55:39;95710;;;32.02;32.22
2711;BME280;20721;47.402;8.550;2023-07-28T09:57:39;95706;;;31.87;32.65
2711;BME280;20721;47.402;8.550;2023-07-28T09:59:39;95695;;;31.87;33.01
2711;BME280;20721;47.402;8.550;2023-07-28T10:01:38;95705;;;32.19;32.49
2711;BME280;20721;47.402;8.550;2023-07-28T10:03:37;95705;;;31.57;32.70
2711;BME280;20721;47.402;8.550;2023-07-28T10:05:38;95704;;;31.13;33.12
2711;BME280;20721;47.402;8.550;2023-07-28T10:07:39;95704;;;30.81;33.33
2711;BME280;20721;47.402;8.550;2023-07-28T10:09:38;95703;;;30.69;33.72
2711;BME280;20721;47.402;8.550;2023-07-28T10:12:53;95709;;;30.69;33.81
2711;BME280;20721;47.402;8.550;2023-07-28T10:14:37;95703;;;30.70;34.02
2711;BME280;20721;47.402;8.550;2023-07-28T10:16:38;95708;;;30.68;33.99
2711;BME280;20721;47.402;8.550;2023-07-28T10:18:37;95709;;;30.77;33.06
2711;BME280;20721;47.402;8.550;2023-07-28T10:20:39;95710;;;30.68;32.74
2711;BME280;20721;47.402;8.550;2023-07-28T10:22:42;95708;;;30.61;32.98
2711;BME280;20721;47.402;8.550;2023-07-28T10:24:53;95711;;;30.84;32.80
2711;BME280;20721;47.402;8.550;2023-07-28T10:26:38;95711;;;31.20;32.49
2711;BME280;20721;47.402;8.550;2023-07-28T10:28:40;95704;;;31.54;32.13
2711;BME280;20721;47.402;8.550;2023-07-28T10:30:38;95704;;;31.89;31.67
2711;BME280;20721;47.402;8.550;2023-07-28T10:32:39;95703;;;32.08;31.92
2711;BME280;20721;47.402;8.550;2023-07-28T10:34:37;95697;;;31.81;30.80
2711;BME280;20721;47.402;8.550;2023-07-28T10:36:38;95694;;;31.96;31.69
2711;BME280;20721;47.402;8.550;2023-07-28T10:38:37;95689;;;31.94;31.58
2711;BME280;20721;47.402;8.550;2023-07-28T10:40:38;95698;;;32.13;31.33
2711;BME280;20721;47.402;8.550;2023-07-28T10:42:37;95690;;;32.38;31.18
2711;BME280;20721;47.402;8.550;2023-07-28T10:44:37;95688;;;32.58;30.44
2711;BME280;20721;47.402;8.550;2023-07-28T10:47:37;95694;;;32.54;30.29
2711;BME280;20721;47.402;8.550;2023-07-28T10:49:37;95684;;;32.32;30.19
2711;BME280;20721;47.402;8.550;2023-07-28T10:51:37;95688;;;32.29;30.74
2711;BME280;20721;47.402;8.550;2023-07-28T10:53:37;95679;;;32.24;30.66
2711;BME280;20721;47.402;8.550;2023-07-28T10:55:37;95686;;;32.10;30.90
2711;BME280;20721;47.402;8.550;2023-07-28T10:57:37;95687;;;31.44;31.92
2711;BME280;20721;47.402;8.550;2023-07-28T10:59:37;95684;;;31.05;31.73
2711;BME280;20721;47.402;8.550;2023-07-28T11:01:38;95680;;;31.04;33.28
2711;BME280;20721;47.402;8.550;2023-07-28T11:03:37;95679;;;30.99;33.06
2711;BME280;20721;47.402;8.550;2023-07-28T11:05:37;95687;;;31.10;32.92
2711;BME280;20721;47.402;8.550;2023-07-28T11:07:38;95684;;;31.12;33.40
2711;BME280;20721;47.402;8.550;2023-07-28T11:09:37;95687;;;31.15;33.22
2711;BME280;20721;47.402;8.550;2023-07-28T11:11:38;95679;;;31.15;32.84
2711;BME280;20721;47.402;8.550;2023-07-28T11:13:41;95686;;;31.21;33.22
2711;BME280;20721;47.402;8.550;2023-07-28T11:15:37;95681;;;31.13;32.90
2711;BME280;20721;47.402;8.550;2023-07-28T11:17:38;95691;;;31.04;32.74
2711;BME280;20721;47.402;8.550;2023-07-28T11:19:37;95689;;;30.91;32.95
2711;BME280;20721;47.402;8.550;2023-07-28T11:21:38;95686;;;30.86;32.80
2711;BME280;20721;47.402;8.550;2023-07-28T11:23:43;95690;;;30.73;32.82
2711;BME280;20721;47.402;8.550;2023-07-28T11:25:38;95693;;;30.55;33.49
2711;BME280;20721;47.402;8.550;2023-07-28T11:27:38;95688;;;30.33;33.16
2711;BME280;20721;47.402;8.550;2023-07-28T11:29:37;95686;;;30.19;33.06
2711;BME280;20721;47.402;8.550;2023-07-28T11:31:37;95683;;;30.03;33.59
2711;BME280;20721;47.402;8.550;2023-07-28T11:33:37;95676;;;29.56;33.93
2711;BME280;20721;47.402;8.550;2023-07-28T11:35:37;95681;;;29.51;34.27
2711;BME280;20721;47.402;8.550;2023-07-28T11:37:38;95682;;;29.54;34.57
2711;BME280;20721;47.402;8.550;2023-07-28T11:39:39;95680;;;29.42;34.32
2711;BME280;20721;47.402;8.550;2023-07-28T11:41:37;95684;;;29.41;34.59
2711;BME280;20721;47.402;8.550;2023-07-28T11:43:37;95684;;;29.31;34.47
2711;BME280;20721;47.402;8.550;2023-07-28T11:45:37;95687;;;29.35;34.67
2711;BME280;20721;47.402;8.550;2023-07-28T11:47:37;95682;;;29.44;34.78